createdAt,value
2023-03-02T00:02:32.516Z,1.68
2023-03-02T00:05:41.990Z,1.76
2023-03-02T00:08:48.880Z,1.74
2023-03-02T00:11:55.789Z,1.75
2023-03-02T00:15:01.716Z,1.74
2023-03-02T00:18:11.203Z,1.82
2023-03-02T00:21:17.545Z,1.83
2023-03-02T00:24:24.259Z,1.80
2023-03-02T00:27:30.363Z,1.74
2023-03-02T00:30:37.140Z,1.58
2023-03-02T00:33:46.406Z,1.45
2023-03-02T00:36:53.258Z,1.50
2023-03-02T00:39:59.266Z,1.46
2023-03-02T00:43:06.144Z,1.49
2023-03-02T00:46:14.569Z,1.43
2023-03-02T00:49:23.924Z,1.36
2023-03-02T00:52:29.905Z,1.44
2023-03-02T00:55:36.478Z,1.52
2023-03-02T00:58:42.617Z,1.58
2023-03-02T01:01:58.414Z,1.56
2023-03-02T01:05:09.966Z,1.51
2023-03-02T01:08:16.904Z,1.52
2023-03-02T01:11:25.984Z,1.55
2023-03-02T01:14:34.727Z,1.46
2023-03-02T01:17:41.476Z,1.40
2023-03-02T01:20:50.601Z,1.32
2023-03-02T01:23:56.443Z,1.20
2023-03-02T01:27:06.150Z,1.26
2023-03-02T01:30:14.339Z,1.28
2023-03-02T01:33:21.460Z,1.38
2023-03-02T01:36:30.981Z,1.40
2023-03-02T01:39:37.919Z,1.38
2023-03-02T01:43:02.497Z,1.25
2023-03-02T01:46:17.363Z,1.20
2023-03-02T01:49:31.647Z,1.04
2023-03-02T01:52:43.364Z,1.03
2023-03-02T01:55:50.638Z,1.02
2023-03-02T01:59:04.330Z,0.99
2023-03-02T02:02:14.834Z,0.96
2023-03-02T02:05:28.313Z,0.90
2023-03-02T02:08:38.102Z,0.92
2023-03-02T02:11:46.095Z,0.99
2023-03-02T02:14:54.287Z,0.98
2023-03-02T02:18:01.010Z,0.94
2023-03-02T02:21:08.551Z,0.91
2023-03-02T02:24:28.081Z,0.87
2023-03-02T02:27:36.780Z,0.84
2023-03-02T02:30:46.575Z,0.86
2023-03-02T02:34:00.577Z,0.82
2023-03-02T02:37:16.531Z,0.76
2023-03-02T02:40:44.727Z,0.72
2023-03-02T02:43:58.475Z,0.76
2023-03-02T02:47:05.861Z,0.77
2023-03-02T02:50:23.744Z,0.76
2023-03-02T02:53:38.085Z,0.77
2023-03-02T02:56:47.439Z,0.86
2023-03-02T03:00:04.060Z,0.92
2023-03-02T03:03:31.986Z,0.88
2023-03-02T03:06:42.418Z,0.80
2023-03-02T03:10:03.490Z,0.82
2023-03-02T03:13:11.416Z,0.81
2023-03-02T03:16:24.057Z,0.79
2023-03-02T03:19:33.336Z,0.82
2023-03-02T03:22:42.219Z,0.90
2023-03-02T03:25:50.048Z,0.94
2023-03-02T03:28:57.428Z,0.98
2023-03-02T03:32:08.438Z,0.98
2023-03-02T03:35:15.762Z,1.02
2023-03-02T03:38:22.112Z,1.04
2023-03-02T03:41:30.429Z,1.06
2023-03-02T03:44:36.564Z,1.04
2023-03-02T03:47:45.798Z,1.00
2023-03-02T03:50:52.245Z,0.96
2023-03-02T03:54:08.542Z,0.93
2023-03-02T03:57:17.615Z,0.88
2023-03-02T04:00:26.260Z,0.86
2023-03-02T04:03:40.029Z,0.78
2023-03-02T04:06:47.775Z,0.77
2023-03-02T04:10:03.615Z,0.74
2023-03-02T04:13:14.141Z,0.71
2023-03-02T04:16:20.244Z,0.66
2023-03-02T04:19:29.638Z,0.58
2023-03-02T04:22:37.308Z,0.41
2023-03-02T04:25:44.191Z,0.32
2023-03-02T04:28:54.150Z,0.38
2023-03-02T04:32:01.705Z,0.34
2023-03-02T04:35:12.789Z,0.23
2023-03-02T04:38:19.781Z,0.15
2023-03-02T04:41:26.667Z,0.02
2023-03-02T04:44:33.245Z,-0.05
2023-03-02T04:47:39.294Z,-0.07
2023-03-02T04:50:49.019Z,0.04
2023-03-02T04:53:57.509Z,0.09
2023-03-02T04:57:04.227Z,0.21
2023-03-02T05:00:13.147Z,0.23
2023-03-02T05:03:22.242Z,0.31
2023-03-02T05:06:31.155Z,0.30
2023-03-02T05:09:39.500Z,0.29
2023-03-02T05:12:58.359Z,0.28
2023-03-02T05:16:05.175Z,0.30
2023-03-02T05:19:18.055Z,0.19
2023-03-02T05:22:27.280Z,0.20
2023-03-02T05:25:37.144Z,0.20
2023-03-02T05:28:47.077Z,0.13
2023-03-02T05:31:53.574Z,0.07
2023-03-02T05:35:00.661Z,0.11
2023-03-02T05:38:09.454Z,0.12
2023-03-02T05:41:16.062Z,0.07
2023-03-02T05:44:22.109Z,0.00
2023-03-02T05:47:28.764Z,-0.12
2023-03-02T05:50:34.999Z,-0.20
2023-03-02T05:53:44.180Z,-0.32
2023-03-02T05:56:50.444Z,-0.30
2023-03-02T05:59:57.048Z,-0.32
2023-03-02T06:03:06.358Z,-0.24
2023-03-02T06:06:14.453Z,-0.19
2023-03-02T06:09:22.997Z,-0.12
2023-03-02T06:12:29.834Z,-0.06
2023-03-02T06:15:35.744Z,0.08
2023-03-02T06:18:46.149Z,0.18
2023-03-02T06:21:51.929Z,0.35
2023-03-02T06:25:01.077Z,0.56
2023-03-02T06:28:09.852Z,0.61
2023-03-02T06:31:16.451Z,0.74
2023-03-02T06:34:22.274Z,0.98
2023-03-02T06:37:28.991Z,1.36
2023-03-02T06:40:40.015Z,2.14
2023-03-02T06:43:46.840Z,2.91
2023-03-02T06:46:52.661Z,3.60
2023-03-02T06:49:59.495Z,4.21
2023-03-02T06:53:05.758Z,4.72
2023-03-02T06:56:14.979Z,5.28
2023-03-02T06:59:20.731Z,5.81
2023-03-02T07:02:27.332Z,6.26
2023-03-02T07:05:34.051Z,6.67
2023-03-02T07:08:40.635Z,6.92
2023-03-02T07:11:49.069Z,7.29
2023-03-02T07:14:55.608Z,7.76
2023-03-02T07:18:01.604Z,8.21
2023-03-02T07:21:09.334Z,8.78
2023-03-02T07:24:15.118Z,9.33
2023-03-02T07:27:24.535Z,9.91
2023-03-02T07:30:32.743Z,10.24
2023-03-02T07:33:40.257Z,10.64
2023-03-02T07:36:45.965Z,10.93
2023-03-02T07:39:54.224Z,11.21
2023-03-02T07:43:02.778Z,11.39
2023-03-02T07:46:09.706Z,11.62
2023-03-02T07:49:15.601Z,11.85
2023-03-02T07:52:22.169Z,11.87
2023-03-02T07:55:28.051Z,12.07
2023-03-02T07:58:38.902Z,12.14
2023-03-02T08:01:44.822Z,12.24
2023-03-02T08:04:52.458Z,12.45
2023-03-02T08:07:58.275Z,12.74
2023-03-02T08:11:08.943Z,12.95
2023-03-02T08:14:17.579Z,13.27
2023-03-02T08:17:24.282Z,13.43
2023-03-02T08:20:30.378Z,13.60
2023-03-02T08:23:37.327Z,13.82
2023-03-02T08:26:44.853Z,13.93
2023-03-02T08:29:54.690Z,14.00
2023-03-02T08:33:04.425Z,14.27
2023-03-02T08:36:17.837Z,14.49
2023-03-02T08:39:23.965Z,14.74
2023-03-02T08:42:30.657Z,14.74
2023-03-02T08:45:40.805Z,14.66
2023-03-02T08:48:48.305Z,14.81
2023-03-02T08:51:56.462Z,14.92
2023-03-02T08:55:04.131Z,15.21
2023-03-02T08:58:10.078Z,15.20
2023-03-02T09:01:22.184Z,15.29
2023-03-02T09:04:28.024Z,15.60
2023-03-02T09:07:35.814Z,15.92
2023-03-02T09:10:42.180Z,16.23
2023-03-02T09:13:49.162Z,16.49
2023-03-02T09:16:57.555Z,16.86
2023-03-02T09:20:04.276Z,17.30
2023-03-02T09:23:11.202Z,17.61
2023-03-02T09:26:17.968Z,17.79
2023-03-02T09:29:23.824Z,17.92
2023-03-02T09:32:33.351Z,18.43
2023-03-02T09:35:42.131Z,18.87
2023-03-02T09:38:48.803Z,19.04
2023-03-02T09:42:44.397Z,19.47
2023-03-02T09:46:11.740Z,19.89
2023-03-02T09:49:35.816Z,20.14
2023-03-02T09:52:53.668Z,20.59
2023-03-02T09:56:02.649Z,20.76
2023-03-02T09:59:24.078Z,20.69
2023-03-02T10:02:38.367Z,20.61
2023-03-02T10:05:51.163Z,20.56
2023-03-02T10:08:58.119Z,20.45
2023-03-02T10:12:45.107Z,20.60
2023-03-02T10:16:11.643Z,20.75
2023-03-02T10:19:28.699Z,21.03
2023-03-02T10:22:49.486Z,21.34
2023-03-02T10:26:05.421Z,21.27
2023-03-02T10:29:42.751Z,21.28
2023-03-02T10:32:55.084Z,21.66
2023-03-02T10:36:01.330Z,21.80
2023-03-02T10:39:19.346Z,22.20
2023-03-02T10:42:33.889Z,22.88
2023-03-02T10:45:40.567Z,22.98
2023-03-02T10:48:56.367Z,23.51
2023-03-02T10:52:08.570Z,24.04
2023-03-02T10:55:20.193Z,24.14
2023-03-02T10:58:33.624Z,24.21
2023-03-02T11:01:39.473Z,24.36
2023-03-02T11:04:46.489Z,24.73
2023-03-02T11:07:57.703Z,24.75
2023-03-02T11:11:08.310Z,24.50
2023-03-02T11:14:20.388Z,24.74
2023-03-02T11:17:37.455Z,24.37
2023-03-02T11:20:50.217Z,24.42
2023-03-02T11:24:12.407Z,24.49
2023-03-02T11:27:30.657Z,24.94
2023-03-02T11:30:49.969Z,25.34
2023-03-02T11:34:18.034Z,25.60
2023-03-02T11:37:32.994Z,25.98
2023-03-02T11:40:49.842Z,26.28
2023-03-02T11:44:04.971Z,26.15
2023-03-02T11:47:16.295Z,25.93
2023-03-02T11:50:24.341Z,26.02
2023-03-02T11:53:44.452Z,26.01
2023-03-02T11:56:51.291Z,25.88
2023-03-02T12:00:02.496Z,26.00
2023-03-02T12:03:41.553Z,25.59
2023-03-02T12:06:47.347Z,25.42
2023-03-02T12:10:07.809Z,25.32
2023-03-02T12:13:26.234Z,25.63
2023-03-02T12:16:43.254Z,25.82
2023-03-02T12:19:51.761Z,25.80
2023-03-02T12:23:11.648Z,25.89
2023-03-02T12:26:34.054Z,26.11
2023-03-02T12:29:44.325Z,25.81
2023-03-02T12:33:07.035Z,25.48
2023-03-02T12:36:28.087Z,25.59
2023-03-02T12:40:11.686Z,25.77
2023-03-02T12:43:32.718Z,25.60
2023-03-02T12:46:41.121Z,25.49
2023-03-02T12:50:00.758Z,25.39
2023-03-02T12:53:10.075Z,25.70
2023-03-02T12:56:26.995Z,25.98
2023-03-02T12:59:32.992Z,26.23
2023-03-02T13:02:40.313Z,26.27
2023-03-02T13:05:50.169Z,26.06
2023-03-02T13:09:01.608Z,25.29
2023-03-02T13:12:08.194Z,24.83
2023-03-02T13:15:20.501Z,24.23
2023-03-02T13:18:32.167Z,23.25
2023-03-02T13:21:42.933Z,22.22
2023-03-02T13:24:54.810Z,21.46
2023-03-02T13:28:07.652Z,20.77
2023-03-02T13:31:28.081Z,20.06
2023-03-02T13:34:52.717Z,19.34
2023-03-02T13:38:07.721Z,19.18
2023-03-02T13:41:25.924Z,18.96
2023-03-02T13:44:37.632Z,18.88
2023-03-02T13:47:44.779Z,19.33
2023-03-02T13:51:03.037Z,19.89
2023-03-02T13:54:25.073Z,20.01
2023-03-02T13:57:35.743Z,20.47
2023-03-02T14:00:43.267Z,21.03
2023-03-02T14:03:49.226Z,21.67
2023-03-02T14:06:58.138Z,22.01
2023-03-02T14:10:07.344Z,22.24
2023-03-02T14:13:22.806Z,22.42
2023-03-02T14:16:28.597Z,22.53
2023-03-02T14:19:35.252Z,22.40
2023-03-02T14:22:41.063Z,22.25
2023-03-02T14:25:51.113Z,21.78
2023-03-02T14:29:05.585Z,21.32
2023-03-02T14:32:16.024Z,20.84
2023-03-02T14:35:21.963Z,20.71
2023-03-02T14:38:30.725Z,20.24
2023-03-02T14:41:52.865Z,20.05
2023-03-02T14:45:00.545Z,19.77
2023-03-02T14:48:06.859Z,19.57
2023-03-02T14:51:28.400Z,19.43
2023-03-02T14:54:43.846Z,19.27
2023-03-02T14:58:01.177Z,19.10
2023-03-02T15:01:08.624Z,19.05
2023-03-02T15:04:15.124Z,18.72
2023-03-02T15:07:27.714Z,18.45
2023-03-02T15:10:34.841Z,18.09
2023-03-02T15:13:45.724Z,17.92
2023-03-02T15:16:52.600Z,17.78
2023-03-02T15:19:58.822Z,17.59
2023-03-02T15:23:05.853Z,17.45
2023-03-02T15:26:14.920Z,17.37
2023-03-02T15:29:24.907Z,17.40
2023-03-02T15:32:30.798Z,17.52
2023-03-02T15:35:37.431Z,17.51
2023-03-02T15:38:43.449Z,17.29
2023-03-02T15:41:50.137Z,16.85
2023-03-02T15:44:58.636Z,16.54
2023-03-02T15:48:05.280Z,16.33
2023-03-02T15:51:12.940Z,16.01
2023-03-02T15:54:20.997Z,15.63
2023-03-02T15:57:26.823Z,15.26
2023-03-02T16:00:37.968Z,15.00
2023-03-02T16:03:43.842Z,14.61
2023-03-02T16:06:50.688Z,14.44
2023-03-02T16:09:56.796Z,14.30
2023-03-02T16:13:04.737Z,14.06
2023-03-02T16:16:13.553Z,13.77
2023-03-02T16:19:22.011Z,13.51
2023-03-02T16:22:28.013Z,13.22
2023-03-02T16:25:34.808Z,12.91
2023-03-02T16:28:40.700Z,12.57
2023-03-02T16:31:51.636Z,12.32
2023-03-02T16:34:58.049Z,12.16
2023-03-02T16:38:05.015Z,12.03
2023-03-02T16:41:19.219Z,11.86
2023-03-02T16:44:25.896Z,11.68
2023-03-02T16:47:34.515Z,11.46
2023-03-02T16:50:41.614Z,11.31
2023-03-02T16:53:48.229Z,11.22
2023-03-02T16:56:54.897Z,11.07
2023-03-02T17:00:05.772Z,10.96
2023-03-02T17:03:15.151Z,10.84
2023-03-02T17:06:30.296Z,10.74
2023-03-02T17:09:41.442Z,10.33
2023-03-02T17:12:50.266Z,10.18
2023-03-02T17:15:57.751Z,10.12
2023-03-02T17:19:06.208Z,10.00
2023-03-02T17:22:12.990Z,9.85
2023-03-02T17:25:19.229Z,9.77
2023-03-02T17:28:26.666Z,9.70
2023-03-02T17:31:32.584Z,9.64
2023-03-02T17:34:43.516Z,9.59
2023-03-02T17:37:49.609Z,9.54
2023-03-02T17:40:56.188Z,9.41
2023-03-02T17:44:02.610Z,9.05
2023-03-02T17:47:13.236Z,8.60
2023-03-02T17:50:22.390Z,8.48
2023-03-02T17:53:28.900Z,8.44
2023-03-02T17:56:34.824Z,8.45
2023-03-02T17:59:43.106Z,8.41
2023-03-02T18:02:49.367Z,8.32
2023-03-02T18:05:58.763Z,8.22
2023-03-02T18:09:08.204Z,8.16
2023-03-02T18:12:14.793Z,8.06
2023-03-02T18:15:20.792Z,7.97
2023-03-02T18:18:27.857Z,7.89
2023-03-02T18:21:36.889Z,7.91
2023-03-02T18:24:43.447Z,7.84
2023-03-02T18:27:49.620Z,7.88
2023-03-02T18:30:56.228Z,7.88
2023-03-02T18:34:02.177Z,7.87
2023-03-02T18:37:11.793Z,7.81
2023-03-02T18:40:18.510Z,7.73
2023-03-02T18:43:25.137Z,7.66
2023-03-02T18:46:35.058Z,7.59
2023-03-02T18:49:42.774Z,7.49
2023-03-02T18:52:53.073Z,7.34
2023-03-02T18:55:59.927Z,7.28
2023-03-02T18:59:07.391Z,7.25
2023-03-02T19:02:17.242Z,7.13
2023-03-02T19:05:27.092Z,6.97
2023-03-02T19:08:37.229Z,6.90
2023-03-02T19:11:43.154Z,6.82
2023-03-02T19:14:50.074Z,6.78
2023-03-02T19:17:57.369Z,6.74
2023-03-02T19:21:05.041Z,6.69
2023-03-02T19:24:13.773Z,6.66
2023-03-02T19:27:20.494Z,6.65
2023-03-02T19:30:30.069Z,6.57
2023-03-02T19:33:36.955Z,6.47
2023-03-02T19:36:42.900Z,6.27
2023-03-02T19:39:52.596Z,6.24
2023-03-02T19:42:58.820Z,6.29
2023-03-02T19:46:05.616Z,6.32
2023-03-02T19:49:11.599Z,6.31
2023-03-02T19:52:18.594Z,6.36
2023-03-02T19:55:28.952Z,6.39
2023-03-02T19:58:35.945Z,6.37
2023-03-02T20:01:42.245Z,6.25
2023-03-02T20:04:51.078Z,6.07
2023-03-02T20:07:58.027Z,5.99
2023-03-02T20:11:07.957Z,6.05
2023-03-02T20:14:27.625Z,6.08
2023-03-02T20:17:39.750Z,6.08
2023-03-02T20:20:47.403Z,6.05
2023-03-02T20:23:54.752Z,6.16
2023-03-02T20:27:03.727Z,6.12
2023-03-02T20:30:21.631Z,6.04
2023-03-02T20:33:32.456Z,5.65
2023-03-02T20:36:40.988Z,5.78
2023-03-02T20:39:49.869Z,5.77
2023-03-02T20:42:59.254Z,5.72
2023-03-02T20:46:05.969Z,5.72
2023-03-02T20:49:15.992Z,5.65
2023-03-02T20:52:21.830Z,5.55
2023-03-02T20:55:29.822Z,5.47
2023-03-02T20:58:41.315Z,5.48
2023-03-02T21:01:48.185Z,5.44
2023-03-02T21:04:54.429Z,5.42
2023-03-02T21:08:01.608Z,5.39
2023-03-02T21:11:08.098Z,5.36
2023-03-02T21:14:17.565Z,5.32
2023-03-02T21:17:24.471Z,5.25
2023-03-02T21:20:36.040Z,5.25
2023-03-02T21:23:42.747Z,5.16
2023-03-02T21:26:52.279Z,5.07
2023-03-02T21:30:03.456Z,5.05
2023-03-02T21:33:10.572Z,5.01
2023-03-02T21:36:22.360Z,4.83
2023-03-02T21:39:29.444Z,4.88
2023-03-02T21:42:35.317Z,4.86
2023-03-02T21:45:45.300Z,4.90
2023-03-02T21:48:53.625Z,4.92
2023-03-02T21:52:00.756Z,4.98
2023-03-02T21:55:06.976Z,4.89
2023-03-02T21:58:13.637Z,4.88
2023-03-02T22:01:22.251Z,4.55
2023-03-02T22:04:28.939Z,4.54
2023-03-02T22:07:35.075Z,4.26
2023-03-02T22:10:45.631Z,4.26
2023-03-02T22:13:54.077Z,4.25
2023-03-02T22:17:03.695Z,4.52
2023-03-02T22:20:20.596Z,4.20
2023-03-02T22:23:29.431Z,3.86
2023-03-02T22:26:35.851Z,4.00
2023-03-02T22:29:46.859Z,4.01
2023-03-02T22:32:58.385Z,4.19
2023-03-02T22:36:19.118Z,3.99
2023-03-02T22:39:36.355Z,3.80
2023-03-02T22:42:44.036Z,3.73
2023-03-02T22:45:51.195Z,4.29
2023-03-02T22:49:02.606Z,4.25
2023-03-02T22:52:21.170Z,3.83
2023-03-02T22:55:45.137Z,3.83
2023-03-02T22:58:53.739Z,4.07
2023-03-02T23:02:05.435Z,4.09
2023-03-02T23:05:29.846Z,4.04
2023-03-02T23:08:36.598Z,3.89
2023-03-02T23:11:45.118Z,3.85
2023-03-02T23:14:54.546Z,3.81
2023-03-02T23:18:01.608Z,3.80
2023-03-02T23:21:24.174Z,3.73
2023-03-02T23:24:30.125Z,3.66
2023-03-02T23:27:36.790Z,3.58
2023-03-02T23:30:42.763Z,3.45
2023-03-02T23:33:55.808Z,3.46
2023-03-02T23:37:10.240Z,2.82
2023-03-02T23:40:23.101Z,3.06
2023-03-02T23:43:29.266Z,3.17
2023-03-02T23:46:36.714Z,3.45
2023-03-02T23:49:42.617Z,3.46
2023-03-02T23:52:51.858Z,3.63
2023-03-02T23:55:58.815Z,3.66
2023-03-02T23:59:05.545Z,3.68
